sensor_id;sensor_type;location;lat;lon;timestamp;P1;durP1;ratioP1;P2;durP2;ratioP2
9422;SDS011;4750;49.506;10.400;2022-09-20T00:02:43;5.80;;;1.60;;
9422;SDS011;4750;49.506;10.400;2022-09-20T00:05:27;7.10;;;1.57;;
9422;SDS011;4750;49.506;10.400;2022-09-20T00:08:12;2.90;;;1.53;;
9422;SDS011;4750;49.506;10.400;2022-09-20T00:11:05;5.80;;;1.93;;
9422;SDS011;4750;49.506;10.400;2022-09-20T00:13:54;2.43;;;1.70;;
9422;SDS011;4750;49.506;10.400;2022-09-20T00:16:39;4.43;;;2.00;;
9422;SDS011;4750;49.506;10.400;2022-09-20T00:19:24;4.60;;;1.70;;
9422;SDS011;4750;49.506;10.400;2022-09-20T00:22:08;3.50;;;1.70;;
9422;SDS011;4750;49.506;10.400;2022-09-20T00:24:52;2.47;;;1.50;;
9422;SDS011;4750;49.506;10.400;2022-09-20T00:27:36;2.07;;;1.40;;
9422;SDS011;4750;49.506;10.400;2022-09-20T00:30:22;5.00;;;2.00;;
9422;SDS011;4750;49.506;10.400;2022-09-20T00:33:06;3.37;;;1.57;;
9422;SDS011;4750;49.506;10.400;2022-09-20T00:35:50;4.30;;;1.90;;
9422;SDS011;4750;49.506;10.400;2022-09-20T00:38:34;4.07;;;1.90;;
9422;SDS011;4750;49.506;10.400;2022-09-20T00:41:18;2.53;;;1.20;;
9422;SDS011;4750;49.506;10.400;2022-09-20T00:44:35;5.37;;;1.70;;
9422;SDS011;4750;49.506;10.400;2022-09-20T00:47:30;6.00;;;2.00;;
9422;SDS011;4750;49.506;10.400;2022-09-20T00:56:18;4.53;;;2.10;;
9422;SDS011;4750;49.506;10.400;2022-09-20T01:02:05;3.13;;;1.70;;
9422;SDS011;4750;49.506;10.400;2022-09-20T01:04:56;4.17;;;1.90;;
9422;SDS011;4750;49.506;10.400;2022-09-20T01:07:41;3.97;;;1.53;;
9422;SDS011;4750;49.506;10.400;2022-09-20T01:10:27;5.13;;;1.93;;
9422;SDS011;4750;49.506;10.400;2022-09-20T01:13:11;2.03;;;1.73;;
9422;SDS011;4750;49.506;10.400;2022-09-20T01:15:55;5.20;;;1.60;;
9422;SDS011;4750;49.506;10.400;2022-09-20T01:18:43;2.77;;;1.77;;
9422;SDS011;4750;49.506;10.400;2022-09-20T01:21:28;1.63;;;1.50;;
9422;SDS011;4750;49.506;10.400;2022-09-20T01:24:16;7.27;;;2.00;;
9422;SDS011;4750;49.506;10.400;2022-09-20T01:27:11;5.30;;;1.67;;
9422;SDS011;4750;49.506;10.400;2022-09-20T01:35:57;6.67;;;1.53;;
9422;SDS011;4750;49.506;10.400;2022-09-20T01:41:42;3.97;;;1.60;;
9422;SDS011;4750;49.506;10.400;2022-09-20T02:05:57;6.17;;;2.10;;
9422;SDS011;4750;49.506;10.400;2022-09-20T02:15:39;6.80;;;1.90;;
9422;SDS011;4750;49.506;10.400;2022-09-20T02:19:45;3.40;;;1.77;;
9422;SDS011;4750;49.506;10.400;2022-09-20T02:46:58;3.63;;;1.90;;
9422;SDS011;4750;49.506;10.400;2022-09-20T02:56:39;3.87;;;1.77;;
9422;SDS011;4750;49.506;10.400;2022-09-20T03:02:35;5.50;;;2.07;;
9422;SDS011;4750;49.506;10.400;2022-09-20T03:05:38;4.50;;;2.07;;
9422;SDS011;4750;49.506;10.400;2022-09-20T03:12:03;6.67;;;2.10;;
9422;SDS011;4750;49.506;10.400;2022-09-20T03:18:04;6.13;;;2.30;;
9422;SDS011;4750;49.506;10.400;2022-09-20T03:24:13;4.27;;;2.00;;
9422;SDS011;4750;49.506;10.400;2022-09-20T03:27:38;6.00;;;2.33;;
9422;SDS011;4750;49.506;10.400;2022-09-20T03:30:53;9.37;;;2.10;;
9422;SDS011;4750;49.506;10.400;2022-09-20T03:33:50;6.80;;;2.80;;
9422;SDS011;4750;49.506;10.400;2022-09-20T03:40:18;4.13;;;2.60;;
9422;SDS011;4750;49.506;10.400;2022-09-20T03:43:16;8.87;;;2.60;;
9422;SDS011;4750;49.506;10.400;2022-09-20T04:01:39;5.43;;;3.33;;
9422;SDS011;4750;49.506;10.400;2022-09-20T04:04:38;8.07;;;3.23;;
9422;SDS011;4750;49.506;10.400;2022-09-20T04:17:24;9.07;;;3.60;;
9422;SDS011;4750;49.506;10.400;2022-09-20T04:20:14;8.93;;;3.60;;
9422;SDS011;4750;49.506;10.400;2022-09-20T04:23:11;7.83;;;3.43;;
9422;SDS011;4750;49.506;10.400;2022-09-20T04:26:06;10.60;;;4.20;;
9422;SDS011;4750;49.506;10.400;2022-09-20T04:29:39;12.63;;;4.20;;
9422;SDS011;4750;49.506;10.400;2022-09-20T04:32:20;10.13;;;4.43;;
9422;SDS011;4750;49.506;10.400;2022-09-20T04:38:33;11.00;;;4.77;;
9422;SDS011;4750;49.506;10.400;2022-09-20T04:47:38;10.57;;;4.17;;
9422;SDS011;4750;49.506;10.400;2022-09-20T04:53:25;5.93;;;5.03;;
9422;SDS011;4750;49.506;10.400;2022-09-20T04:59:09;8.70;;;4.33;;
9422;SDS011;4750;49.506;10.400;2022-09-20T05:09:21;10.37;;;4.57;;
9422;SDS011;4750;49.506;10.400;2022-09-20T05:24:22;6.87;;;4.40;;
9422;SDS011;4750;49.506;10.400;2022-09-20T05:27:23;10.23;;;4.90;;
9422;SDS011;4750;49.506;10.400;2022-09-20T05:33:32;9.57;;;4.80;;
9422;SDS011;4750;49.506;10.400;2022-09-20T05:36:35;10.13;;;5.20;;
9422;SDS011;4750;49.506;10.400;2022-09-20T05:42:38;9.70;;;4.90;;
9422;SDS011;4750;49.506;10.400;2022-09-20T05:48:20;10.23;;;5.53;;
9422;SDS011;4750;49.506;10.400;2022-09-20T05:51:24;10.20;;;5.63;;
9422;SDS011;4750;49.506;10.400;2022-09-20T06:00:22;9.73;;;5.77;;
9422;SDS011;4750;49.506;10.400;2022-09-20T06:13:10;13.30;;;5.40;;
9422;SDS011;4750;49.506;10.400;2022-09-20T06:16:08;10.07;;;4.63;;
9422;SDS011;4750;49.506;10.400;2022-09-20T06:22:30;10.77;;;5.40;;
9422;SDS011;4750;49.506;10.400;2022-09-20T06:25:20;9.40;;;4.67;;
9422;SDS011;4750;49.506;10.400;2022-09-20T06:28:13;8.83;;;4.73;;
9422;SDS011;4750;49.506;10.400;2022-09-20T06:31:00;7.30;;;4.50;;
9422;SDS011;4750;49.506;10.400;2022-09-20T06:33:52;13.13;;;4.77;;
9422;SDS011;4750;49.506;10.400;2022-09-20T06:36:45;10.97;;;4.97;;
9422;SDS011;4750;49.506;10.400;2022-09-20T06:39:57;10.70;;;4.40;;
9422;SDS011;4750;49.506;10.400;2022-09-20T06:43:15;9.30;;;4.30;;
9422;SDS011;4750;49.506;10.400;2022-09-20T06:45:59;8.97;;;4.50;;
9422;SDS011;4750;49.506;10.400;2022-09-20T06:48:43;5.67;;;3.77;;
9422;SDS011;4750;49.506;10.400;2022-09-20T06:51:28;5.57;;;3.23;;
9422;SDS011;4750;49.506;10.400;2022-09-20T06:54:17;11.30;;;3.83;;
9422;SDS011;4750;49.506;10.400;2022-09-20T06:57:03;14.30;;;4.13;;
9422;SDS011;4750;49.506;10.400;2022-09-20T06:59:48;5.03;;;3.17;;
9422;SDS011;4750;49.506;10.400;2022-09-20T07:02:32;7.97;;;4.00;;
9422;SDS011;4750;49.506;10.400;2022-09-20T07:05:17;8.23;;;3.40;;
9422;SDS011;4750;49.506;10.400;2022-09-20T07:08:04;8.13;;;4.00;;
9422;SDS011;4750;49.506;10.400;2022-09-20T07:10:48;6.83;;;3.40;;
9422;SDS011;4750;49.506;10.400;2022-09-20T07:13:33;8.87;;;4.13;;
9422;SDS011;4750;49.506;10.400;2022-09-20T07:16:18;8.33;;;3.70;;
9422;SDS011;4750;49.506;10.400;2022-09-20T07:19:03;6.90;;;3.37;;
9422;SDS011;4750;49.506;10.400;2022-09-20T07:21:49;8.60;;;3.83;;
9422;SDS011;4750;49.506;10.400;2022-09-20T07:24:33;8.37;;;3.93;;
9422;SDS011;4750;49.506;10.400;2022-09-20T07:27:17;9.27;;;3.47;;
9422;SDS011;4750;49.506;10.400;2022-09-20T07:30:02;10.83;;;2.90;;
9422;SDS011;4750;49.506;10.400;2022-09-20T07:32:47;5.37;;;2.70;;
9422;SDS011;4750;49.506;10.400;2022-09-20T07:35:31;9.17;;;3.73;;
9422;SDS011;4750;49.506;10.400;2022-09-20T07:38:15;9.40;;;3.20;;
9422;SDS011;4750;49.506;10.400;2022-09-20T07:41:00;7.40;;;3.30;;
9422;SDS011;4750;49.506;10.400;2022-09-20T07:43:45;7.97;;;2.90;;
9422;SDS011;4750;49.506;10.400;2022-09-20T07:46:29;10.10;;;3.37;;
9422;SDS011;4750;49.506;10.400;2022-09-20T07:49:16;8.60;;;3.10;;
9422;SDS011;4750;49.506;10.400;2022-09-20T07:52:01;7.40;;;3.33;;
9422;SDS011;4750;49.506;10.400;2022-09-20T07:54:45;8.33;;;2.80;;
9422;SDS011;4750;49.506;10.400;2022-09-20T07:57:32;7.33;;;2.77;;
9422;SDS011;4750;49.506;10.400;2022-09-20T08:00:19;8.17;;;2.93;;
9422;SDS011;4750;49.506;10.400;2022-09-20T08:03:03;7.70;;;2.60;;
9422;SDS011;4750;49.506;10.400;2022-09-20T08:05:48;10.47;;;3.07;;
9422;SDS011;4750;49.506;10.400;2022-09-20T08:08:33;9.37;;;3.77;;
9422;SDS011;4750;49.506;10.400;2022-09-20T08:11:21;7.50;;;2.80;;
9422;SDS011;4750;49.506;10.400;2022-09-20T08:14:11;9.00;;;2.57;;
9422;SDS011;4750;49.506;10.400;2022-09-20T08:16:57;5.27;;;2.33;;
9422;SDS011;4750;49.506;10.400;2022-09-20T08:19:41;7.47;;;2.33;;
9422;SDS011;4750;49.506;10.400;2022-09-20T08:22:27;7.03;;;2.27;;
9422;SDS011;4750;49.506;10.400;2022-09-20T08:25:10;6.57;;;2.50;;
9422;SDS011;4750;49.506;10.400;2022-09-20T08:27:54;8.10;;;2.17;;
9422;SDS011;4750;49.506;10.400;2022-09-20T08:30:39;4.23;;;1.90;;
9422;SDS011;4750;49.506;10.400;2022-09-20T08:33:23;8.83;;;2.67;;
9422;SDS011;4750;49.506;10.400;2022-09-20T08:36:09;4.73;;;2.20;;
9422;SDS011;4750;49.506;10.400;2022-09-20T08:38:56;6.73;;;2.33;;
9422;SDS011;4750;49.506;10.400;2022-09-20T08:41:53;8.47;;;2.20;;
9422;SDS011;4750;49.506;10.400;2022-09-20T08:44:46;7.23;;;2.20;;
9422;SDS011;4750;49.506;10.400;2022-09-20T08:47:36;4.43;;;1.80;;
9422;SDS011;4750;49.506;10.400;2022-09-20T08:50:27;7.67;;;2.13;;
9422;SDS011;4750;49.506;10.400;2022-09-20T08:53:11;4.67;;;1.90;;
9422;SDS011;4750;49.506;10.400;2022-09-20T08:55:57;4.93;;;2.00;;
9422;SDS011;4750;49.506;10.400;2022-09-20T08:58:42;6.43;;;2.17;;
9422;SDS011;4750;49.506;10.400;2022-09-20T09:01:27;4.67;;;1.80;;
9422;SDS011;4750;49.506;10.400;2022-09-20T09:04:21;4.30;;;2.10;;
9422;SDS011;4750;49.506;10.400;2022-09-20T09:07:08;7.10;;;2.03;;
9422;SDS011;4750;49.506;10.400;2022-09-20T09:09:55;12.03;;;2.83;;
9422;SDS011;4750;49.506;10.400;2022-09-20T09:12:40;7.03;;;2.10;;
9422;SDS011;4750;49.506;10.400;2022-09-20T09:15:30;6.30;;;2.10;;
9422;SDS011;4750;49.506;10.400;2022-09-20T09:18:17;6.10;;;2.17;;
9422;SDS011;4750;49.506;10.400;2022-09-20T09:21:01;3.37;;;1.97;;
9422;SDS011;4750;49.506;10.400;2022-09-20T09:23:54;10.50;;;1.83;;
9422;SDS011;4750;49.506;10.400;2022-09-20T09:26:45;8.47;;;1.83;;
9422;SDS011;4750;49.506;10.400;2022-09-20T09:29:29;5.03;;;2.07;;
9422;SDS011;4750;49.506;10.400;2022-09-20T09:32:30;6.77;;;1.93;;
9422;SDS011;4750;49.506;10.400;2022-09-20T09:35:21;4.17;;;1.30;;
9422;SDS011;4750;49.506;10.400;2022-09-20T09:38:13;3.50;;;1.63;;
9422;SDS011;4750;49.506;10.400;2022-09-20T09:41:05;5.33;;;1.53;;
9422;SDS011;4750;49.506;10.400;2022-09-20T09:44:19;5.00;;;2.17;;
9422;SDS011;4750;49.506;10.400;2022-09-20T09:47:10;8.50;;;2.73;;
9422;SDS011;4750;49.506;10.400;2022-09-20T09:50:09;7.03;;;2.40;;
9422;SDS011;4750;49.506;10.400;2022-09-20T09:53:08;5.67;;;1.57;;
9422;SDS011;4750;49.506;10.400;2022-09-20T09:59:05;9.60;;;2.40;;
9422;SDS011;4750;49.506;10.400;2022-09-20T10:02:15;8.17;;;2.23;;
9422;SDS011;4750;49.506;10.400;2022-09-20T10:10:57;2.03;;;1.03;;
9422;SDS011;4750;49.506;10.400;2022-09-20T10:32:47;4.77;;;1.63;;
9422;SDS011;4750;49.506;10.400;2022-09-20T10:38:49;4.63;;;1.60;;
9422;SDS011;4750;49.506;10.400;2022-09-20T10:42:01;7.57;;;1.60;;
9422;SDS011;4750;49.506;10.400;2022-09-20T10:48:45;4.27;;;1.70;;
9422;SDS011;4750;49.506;10.400;2022-09-20T10:51:40;2.40;;;1.53;;
9422;SDS011;4750;49.506;10.400;2022-09-20T10:54:44;2.13;;;1.20;;
9422;SDS011;4750;49.506;10.400;2022-09-20T11:03:49;3.07;;;1.30;;
9422;SDS011;4750;49.506;10.400;2022-09-20T11:06:47;4.27;;;1.40;;
9422;SDS011;4750;49.506;10.400;2022-09-20T11:09:55;3.33;;;1.43;;
9422;SDS011;4750;49.506;10.400;2022-09-20T11:12:48;3.13;;;1.07;;
9422;SDS011;4750;49.506;10.400;2022-09-20T11:15:47;4.33;;;1.00;;
9422;SDS011;4750;49.506;10.400;2022-09-20T11:18:40;1.90;;;1.10;;
9422;SDS011;4750;49.506;10.400;2022-09-20T11:21:34;3.17;;;1.00;;
9422;SDS011;4750;49.506;10.400;2022-09-20T11:27:51;0.90;;;0.90;;
9422;SDS011;4750;49.506;10.400;2022-09-20T11:30:48;1.67;;;0.80;;
9422;SDS011;4750;49.506;10.400;2022-09-20T11:33:52;2.97;;;0.93;;
9422;SDS011;4750;49.506;10.400;2022-09-20T11:36:47;2.23;;;0.90;;
9422;SDS011;4750;49.506;10.400;2022-09-20T11:39:45;3.33;;;1.20;;
9422;SDS011;4750;49.506;10.400;2022-09-20T11:42:33;1.70;;;0.83;;
9422;SDS011;4750;49.506;10.400;2022-09-20T11:45:21;1.10;;;0.60;;
9422;SDS011;4750;49.506;10.400;2022-09-20T11:48:07;2.57;;;1.27;;
9422;SDS011;4750;49.506;10.400;2022-09-20T11:51:11;4.30;;;1.27;;
9422;SDS011;4750;49.506;10.400;2022-09-20T11:54:20;3.10;;;1.30;;
9422;SDS011;4750;49.506;10.400;2022-09-20T11:57:13;1.33;;;1.00;;
9422;SDS011;4750;49.506;10.400;2022-09-20T12:00:00;3.00;;;1.10;;
9422;SDS011;4750;49.506;10.400;2022-09-20T12:02:56;3.03;;;1.17;;
9422;SDS011;4750;49.506;10.400;2022-09-20T12:05:41;5.83;;;1.40;;
9422;SDS011;4750;49.506;10.400;2022-09-20T12:08:28;3.20;;;1.40;;
9422;SDS011;4750;49.506;10.400;2022-09-20T12:11:16;2.20;;;1.20;;
9422;SDS011;4750;49.506;10.400;2022-09-20T12:14:21;2.37;;;1.17;;
9422;SDS011;4750;49.506;10.400;2022-09-20T12:32:28;4.77;;;1.53;;
9422;SDS011;4750;49.506;10.400;2022-09-20T12:38:28;3.27;;;1.30;;
9422;SDS011;4750;49.506;10.400;2022-09-20T12:41:16;3.03;;;1.23;;
9422;SDS011;4750;49.506;10.400;2022-09-20T12:44:03;3.97;;;1.00;;
9422;SDS011;4750;49.506;10.400;2022-09-20T12:49:53;4.70;;;1.50;;
9422;SDS011;4750;49.506;10.400;2022-09-20T12:53:01;5.80;;;1.33;;
9422;SDS011;4750;49.506;10.400;2022-09-20T12:56:03;1.80;;;0.80;;
9422;SDS011;4750;49.506;10.400;2022-09-20T12:58:50;3.80;;;1.30;;
9422;SDS011;4750;49.506;10.400;2022-09-20T13:01:37;1.93;;;1.00;;
9422;SDS011;4750;49.506;10.400;2022-09-20T13:07:35;3.90;;;0.90;;
9422;SDS011;4750;49.506;10.400;2022-09-20T13:10:31;2.00;;;1.13;;
9422;SDS011;4750;49.506;10.400;2022-09-20T13:13:26;3.33;;;1.00;;
9422;SDS011;4750;49.506;10.400;2022-09-20T13:17:02;3.53;;;1.10;;
9422;SDS011;4750;49.506;10.400;2022-09-20T13:19:21;2.03;;;1.10;;
9422;SDS011;4750;49.506;10.400;2022-09-20T13:22:22;2.77;;;1.20;;
9422;SDS011;4750;49.506;10.400;2022-09-20T13:25:12;3.67;;;1.27;;
9422;SDS011;4750;49.506;10.400;2022-09-20T13:34:11;3.87;;;0.90;;
9422;SDS011;4750;49.506;10.400;2022-09-20T13:36:56;2.93;;;1.37;;
9422;SDS011;4750;49.506;10.400;2022-09-20T13:39:43;2.83;;;1.17;;
9422;SDS011;4750;49.506;10.400;2022-09-20T13:42:27;3.57;;;1.13;;
9422;SDS011;4750;49.506;10.400;2022-09-20T13:45:12;1.23;;;0.80;;
9422;SDS011;4750;49.506;10.400;2022-09-20T13:47:58;2.63;;;0.90;;
9422;SDS011;4750;49.506;10.400;2022-09-20T13:50:44;2.90;;;0.80;;
9422;SDS011;4750;49.506;10.400;2022-09-20T13:53:28;3.00;;;1.00;;
9422;SDS011;4750;49.506;10.400;2022-09-20T13:59:09;2.50;;;1.17;;
9422;SDS011;4750;49.506;10.400;2022-09-20T14:02:00;2.90;;;1.17;;
9422;SDS011;4750;49.506;10.400;2022-09-20T14:04:45;3.13;;;0.90;;
9422;SDS011;4750;49.506;10.400;2022-09-20T14:07:30;1.13;;;0.60;;
9422;SDS011;4750;49.506;10.400;2022-09-20T14:10:28;2.70;;;1.17;;
9422;SDS011;4750;49.506;10.400;2022-09-20T14:13:20;2.73;;;1.00;;
9422;SDS011;4750;49.506;10.400;2022-09-20T14:16:05;3.27;;;1.13;;
9422;SDS011;4750;49.506;10.400;2022-09-20T14:18:50;1.17;;;0.90;;
9422;SDS011;4750;49.506;10.400;2022-09-20T14:21:35;3.73;;;1.20;;
9422;SDS011;4750;49.506;10.400;2022-09-20T14:24:28;1.47;;;0.93;;
9422;SDS011;4750;49.506;10.400;2022-09-20T14:27:19;1.80;;;0.77;;
9422;SDS011;4750;49.506;10.400;2022-09-20T14:30:04;1.90;;;0.70;;
9422;SDS011;4750;49.506;10.400;2022-09-20T14:32:50;2.53;;;0.87;;
9422;SDS011;4750;49.506;10.400;2022-09-20T14:35:36;0.93;;;0.70;;
9422;SDS011;4750;49.506;10.400;2022-09-20T14:38:23;0.97;;;0.57;;
9422;SDS011;4750;49.506;10.400;2022-09-20T14:41:10;3.07;;;0.80;;
9422;SDS011;4750;49.506;10.400;2022-09-20T14:43:56;2.13;;;0.63;;
9422;SDS011;4750;49.506;10.400;2022-09-20T14:46:41;1.13;;;0.60;;
9422;SDS011;4750;49.506;10.400;2022-09-20T14:58:00;1.83;;;0.60;;
9422;SDS011;4750;49.506;10.400;2022-09-20T15:03:39;1.53;;;0.70;;
9422;SDS011;4750;49.506;10.400;2022-09-20T15:06:24;2.10;;;0.60;;
9422;SDS011;4750;49.506;10.400;2022-09-20T15:09:09;0.43;;;0.43;;
9422;SDS011;4750;49.506;10.400;2022-09-20T15:12:14;0.77;;;0.50;;
9422;SDS011;4750;49.506;10.400;2022-09-20T15:15:00;1.43;;;0.77;;
9422;SDS011;4750;49.506;10.400;2022-09-20T15:17:44;1.37;;;0.90;;
9422;SDS011;4750;49.506;10.400;2022-09-20T15:20:29;0.50;;;0.50;;
9422;SDS011;4750;49.506;10.400;2022-09-20T15:23:13;1.93;;;0.63;;
9422;SDS011;4750;49.506;10.400;2022-09-20T15:25:58;1.23;;;0.70;;
9422;SDS011;4750;49.506;10.400;2022-09-20T15:28:43;1.43;;;0.70;;
9422;SDS011;4750;49.506;10.400;2022-09-20T15:31:27;1.57;;;0.90;;
9422;SDS011;4750;49.506;10.400;2022-09-20T15:34:12;2.23;;;0.87;;
9422;SDS011;4750;49.506;10.400;2022-09-20T15:36:56;6.83;;;1.40;;
9422;SDS011;4750;49.506;10.400;2022-09-20T15:39:41;1.90;;;0.70;;
9422;SDS011;4750;49.506;10.400;2022-09-20T15:42:25;2.00;;;0.70;;
9422;SDS011;4750;49.506;10.400;2022-09-20T15:45:09;1.60;;;0.80;;
9422;SDS011;4750;49.506;10.400;2022-09-20T15:47:54;3.87;;;0.80;;
9422;SDS011;4750;49.506;10.400;2022-09-20T15:50:40;2.43;;;1.17;;
9422;SDS011;4750;49.506;10.400;2022-09-20T15:53:34;2.20;;;0.83;;
9422;SDS011;4750;49.506;10.400;2022-09-20T15:56:21;2.07;;;0.80;;
9422;SDS011;4750;49.506;10.400;2022-09-20T15:59:07;1.83;;;1.00;;
9422;SDS011;4750;49.506;10.400;2022-09-20T16:01:52;1.87;;;0.90;;
9422;SDS011;4750;49.506;10.400;2022-09-20T16:04:36;2.00;;;0.90;;
9422;SDS011;4750;49.506;10.400;2022-09-20T16:07:21;0.97;;;0.70;;
9422;SDS011;4750;49.506;10.400;2022-09-20T16:10:09;2.57;;;1.03;;
9422;SDS011;4750;49.506;10.400;2022-09-20T16:12:53;1.97;;;0.90;;
9422;SDS011;4750;49.506;10.400;2022-09-20T16:15:37;1.60;;;1.20;;
9422;SDS011;4750;49.506;10.400;2022-09-20T16:18:22;0.83;;;0.67;;
9422;SDS011;4750;49.506;10.400;2022-09-20T16:21:25;2.90;;;0.80;;
9422;SDS011;4750;49.506;10.400;2022-09-20T16:24:10;2.77;;;1.30;;
9422;SDS011;4750;49.506;10.400;2022-09-20T16:26:57;2.40;;;1.43;;
9422;SDS011;4750;49.506;10.400;2022-09-20T16:29:43;2.37;;;1.00;;
9422;SDS011;4750;49.506;10.400;2022-09-20T16:32:28;5.43;;;2.30;;
9422;SDS011;4750;49.506;10.400;2022-09-20T16:35:12;4.40;;;1.50;;
9422;SDS011;4750;49.506;10.400;2022-09-20T16:37:56;1.90;;;0.90;;
9422;SDS011;4750;49.506;10.400;2022-09-20T16:40:40;2.67;;;0.90;;
9422;SDS011;4750;49.506;10.400;2022-09-20T16:43:24;1.43;;;0.80;;
9422;SDS011;4750;49.506;10.400;2022-09-20T16:46:09;2.10;;;0.80;;
9422;SDS011;4750;49.506;10.400;2022-09-20T16:48:54;2.47;;;1.10;;
9422;SDS011;4750;49.506;10.400;2022-09-20T16:51:40;0.70;;;0.40;;
9422;SDS011;4750;49.506;10.400;2022-09-20T16:54:25;1.73;;;0.50;;
9422;SDS011;4750;49.506;10.400;2022-09-20T16:57:09;3.40;;;1.07;;
9422;SDS011;4750;49.506;10.400;2022-09-20T16:59:54;2.63;;;1.43;;
9422;SDS011;4750;49.506;10.400;2022-09-20T17:02:38;1.80;;;1.10;;
9422;SDS011;4750;49.506;10.400;2022-09-20T17:05:23;1.83;;;1.37;;
9422;SDS011;4750;49.506;10.400;2022-09-20T17:08:08;1.60;;;0.93;;
9422;SDS011;4750;49.506;10.400;2022-09-20T17:10:56;2.90;;;0.90;;
9422;SDS011;4750;49.506;10.400;2022-09-20T17:13:43;2.93;;;0.80;;
9422;SDS011;4750;49.506;10.400;2022-09-20T17:16:28;0.73;;;0.73;;
9422;SDS011;4750;49.506;10.400;2022-09-20T17:19:18;1.27;;;0.77;;
9422;SDS011;4750;49.506;10.400;2022-09-20T17:22:03;1.60;;;0.70;;
9422;SDS011;4750;49.506;10.400;2022-09-20T17:24:49;2.63;;;0.50;;
9422;SDS011;4750;49.506;10.400;2022-09-20T17:27:33;1.70;;;0.63;;
9422;SDS011;4750;49.506;10.400;2022-09-20T17:30:18;1.50;;;0.60;;
9422;SDS011;4750;49.506;10.400;2022-09-20T17:33:02;1.10;;;0.70;;
9422;SDS011;4750;49.506;10.400;2022-09-20T17:35:50;1.40;;;0.57;;
9422;SDS011;4750;49.506;10.400;2022-09-20T17:38:34;3.10;;;1.23;;
9422;SDS011;4750;49.506;10.400;2022-09-20T17:41:19;1.83;;;1.00;;
9422;SDS011;4750;49.506;10.400;2022-09-20T17:44:04;0.70;;;0.70;;
9422;SDS011;4750;49.506;10.400;2022-09-20T17:46:52;1.23;;;0.77;;
9422;SDS011;4750;49.506;10.400;2022-09-20T17:49:36;2.53;;;0.63;;
9422;SDS011;4750;49.506;10.400;2022-09-20T17:52:22;0.77;;;0.60;;
9422;SDS011;4750;49.506;10.400;2022-09-20T17:57:53;2.43;;;0.80;;
9422;SDS011;4750;49.506;10.400;2022-09-20T18:00:37;1.03;;;0.77;;
9422;SDS011;4750;49.506;10.400;2022-09-20T18:03:22;5.07;;;0.80;;
9422;SDS011;4750;49.506;10.400;2022-09-20T18:06:25;1.33;;;0.77;;
9422;SDS011;4750;49.506;10.400;2022-09-20T18:09:22;1.20;;;0.80;;
9422;SDS011;4750;49.506;10.400;2022-09-20T18:12:07;0.87;;;0.80;;
9422;SDS011;4750;49.506;10.400;2022-09-20T18:14:51;2.27;;;0.70;;
9422;SDS011;4750;49.506;10.400;2022-09-20T18:17:36;2.53;;;0.80;;
9422;SDS011;4750;49.506;10.400;2022-09-20T18:20:20;2.47;;;0.80;;
9422;SDS011;4750;49.506;10.400;2022-09-20T18:23:04;2.23;;;0.90;;
9422;SDS011;4750;49.506;10.400;2022-09-20T18:25:48;1.67;;;0.70;;
9422;SDS011;4750;49.506;10.400;2022-09-20T18:28:55;3.17;;;1.50;;
9422;SDS011;4750;49.506;10.400;2022-09-20T18:31:48;6.80;;;4.60;;
9422;SDS011;4750;49.506;10.400;2022-09-20T18:34:34;3.90;;;2.30;;
9422;SDS011;4750;49.506;10.400;2022-09-20T18:37:19;3.83;;;2.47;;
9422;SDS011;4750;49.506;10.400;2022-09-20T18:40:03;2.60;;;1.50;;
9422;SDS011;4750;49.506;10.400;2022-09-20T18:42:47;1.23;;;0.80;;
9422;SDS011;4750;49.506;10.400;2022-09-20T18:45:32;2.27;;;1.60;;
9422;SDS011;4750;49.506;10.400;2022-09-20T18:48:15;3.57;;;1.10;;
9422;SDS011;4750;49.506;10.400;2022-09-20T18:51:02;2.50;;;0.80;;
9422;SDS011;4750;49.506;10.400;2022-09-20T18:53:47;1.00;;;0.67;;
9422;SDS011;4750;49.506;10.400;2022-09-20T18:56:34;2.00;;;0.90;;
9422;SDS011;4750;49.506;10.400;2022-09-20T18:59:20;9.23;;;7.80;;
9422;SDS011;4750;49.506;10.400;2022-09-20T19:02:22;4.77;;;3.20;;
9422;SDS011;4750;49.506;10.400;2022-09-20T19:05:28;4.67;;;3.87;;
9422;SDS011;4750;49.506;10.400;2022-09-20T19:08:22;4.37;;;2.87;;
9422;SDS011;4750;49.506;10.400;2022-09-20T19:11:29;1.63;;;1.30;;
9422;SDS011;4750;49.506;10.400;2022-09-20T19:17:17;4.87;;;1.33;;
9422;SDS011;4750;49.506;10.400;2022-09-20T19:20:31;1.77;;;0.90;;
9422;SDS011;4750;49.506;10.400;2022-09-20T19:26:33;2.37;;;1.40;;
9422;SDS011;4750;49.506;10.400;2022-09-20T19:29:21;1.23;;;1.10;;
9422;SDS011;4750;49.506;10.400;2022-09-20T19:32:15;1.50;;;1.30;;
9422;SDS011;4750;49.506;10.400;2022-09-20T19:35:04;1.03;;;0.93;;
9422;SDS011;4750;49.506;10.400;2022-09-20T19:38:02;1.33;;;1.23;;
9422;SDS011;4750;49.506;10.400;2022-09-20T19:41:05;2.47;;;1.27;;
9422;SDS011;4750;49.506;10.400;2022-09-20T19:52:43;4.60;;;1.20;;
9422;SDS011;4750;49.506;10.400;2022-09-20T19:55:28;1.60;;;1.10;;
9422;SDS011;4750;49.506;10.400;2022-09-20T19:58:14;1.30;;;0.93;;
9422;SDS011;4750;49.506;10.400;2022-09-20T20:00:58;1.13;;;0.80;;
9422;SDS011;4750;49.506;10.400;2022-09-20T20:03:43;3.53;;;1.20;;
9422;SDS011;4750;49.506;10.400;2022-09-20T20:09:49;3.50;;;1.27;;
9422;SDS011;4750;49.506;10.400;2022-09-20T20:12:43;3.50;;;1.10;;
9422;SDS011;4750;49.506;10.400;2022-09-20T20:15:39;2.23;;;1.20;;
9422;SDS011;4750;49.506;10.400;2022-09-20T20:21:49;1.40;;;1.10;;
9422;SDS011;4750;49.506;10.400;2022-09-20T20:24:45;2.63;;;1.47;;
9422;SDS011;4750;49.506;10.400;2022-09-20T20:27:34;1.30;;;1.03;;
9422;SDS011;4750;49.506;10.400;2022-09-20T20:30:18;3.17;;;1.17;;
9422;SDS011;4750;49.506;10.400;2022-09-20T20:33:02;2.37;;;1.30;;
9422;SDS011;4750;49.506;10.400;2022-09-20T20:35:55;1.17;;;1.00;;
9422;SDS011;4750;49.506;10.400;2022-09-20T20:38:41;9.27;;;1.80;;
9422;SDS011;4750;49.506;10.400;2022-09-20T20:41:32;3.47;;;1.30;;
9422;SDS011;4750;49.506;10.400;2022-09-20T20:44:16;3.13;;;1.40;;
9422;SDS011;4750;49.506;10.400;2022-09-20T20:47:02;4.37;;;1.80;;
9422;SDS011;4750;49.506;10.400;2022-09-20T20:49:47;2.17;;;1.97;;
9422;SDS011;4750;49.506;10.400;2022-09-20T20:52:31;3.13;;;1.97;;
9422;SDS011;4750;49.506;10.400;2022-09-20T20:55:15;2.97;;;1.80;;
9422;SDS011;4750;49.506;10.400;2022-09-20T20:57:59;3.30;;;1.70;;
9422;SDS011;4750;49.506;10.400;2022-09-20T21:00:43;3.10;;;2.07;;
9422;SDS011;4750;49.506;10.400;2022-09-20T21:03:27;5.33;;;2.23;;
9422;SDS011;4750;49.506;10.400;2022-09-20T21:06:11;4.43;;;1.90;;
9422;SDS011;4750;49.506;10.400;2022-09-20T21:08:56;5.53;;;2.50;;
9422;SDS011;4750;49.506;10.400;2022-09-20T21:11:40;3.90;;;1.93;;
9422;SDS011;4750;49.506;10.400;2022-09-20T21:14:29;3.20;;;2.10;;
9422;SDS011;4750;49.506;10.400;2022-09-20T21:17:16;1.90;;;1.60;;
9422;SDS011;4750;49.506;10.400;2022-09-20T21:20:00;2.13;;;1.80;;
9422;SDS011;4750;49.506;10.400;2022-09-20T21:22:44;6.20;;;1.90;;
9422;SDS011;4750;49.506;10.400;2022-09-20T21:25:28;4.83;;;2.37;;
9422;SDS011;4750;49.506;10.400;2022-09-20T21:28:12;4.03;;;2.60;;
9422;SDS011;4750;49.506;10.400;2022-09-20T21:30:56;3.27;;;2.13;;
9422;SDS011;4750;49.506;10.400;2022-09-20T21:33:41;2.47;;;2.03;;
9422;SDS011;4750;49.506;10.400;2022-09-20T21:36:26;3.10;;;2.40;;
9422;SDS011;4750;49.506;10.400;2022-09-20T21:39:11;3.37;;;2.60;;
9422;SDS011;4750;49.506;10.400;2022-09-20T21:41:56;2.90;;;2.40;;
9422;SDS011;4750;49.506;10.400;2022-09-20T21:44:39;2.77;;;2.33;;
9422;SDS011;4750;49.506;10.400;2022-09-20T21:47:26;5.17;;;2.20;;
9422;SDS011;4750;49.506;10.400;2022-09-20T21:50:10;3.57;;;2.33;;
9422;SDS011;4750;49.506;10.400;2022-09-20T21:52:54;2.47;;;2.00;;
9422;SDS011;4750;49.506;10.400;2022-09-20T21:55:38;3.10;;;2.10;;
9422;SDS011;4750;49.506;10.400;2022-09-20T21:58:22;3.00;;;2.53;;
9422;SDS011;4750;49.506;10.400;2022-09-20T22:01:07;2.53;;;2.33;;
9422;SDS011;4750;49.506;10.400;2022-09-20T22:03:54;3.33;;;2.90;;
9422;SDS011;4750;49.506;10.400;2022-09-20T22:06:42;5.13;;;2.90;;
9422;SDS011;4750;49.506;10.400;2022-09-20T22:09:28;4.20;;;2.47;;
9422;SDS011;4750;49.506;10.400;2022-09-20T22:12:12;4.33;;;2.60;;
9422;SDS011;4750;49.506;10.400;2022-09-20T22:14:56;6.87;;;2.83;;